Time;durP1;ratioP1;P1;durP2;ratioP2;P2;SDS_P1;SDS_P2;PMS_P1;PMS_P2;Temp;Humidity;BMP_temperature;BMP_pressure;BME280_temperature;BME280_humidity;BME280_pressure;Samples;Min_cycle;Max_cycle;Signal;HPM_P1;HPM_P2
2022/03/31 00:00:49;;;;;;;4.13;1.00;;;6.30;99.90;;;;;;4972560;28;20035;-66
2022/03/31 00:03:17;;;;;;;5.18;1.40;;;6.40;99.90;;;;;;4971935;28;20049;-66
2022/03/31 00:05:44;;;;;;;9.32;1.05;;;6.40;99.90;;;;;;4971604;28;20034;-66
2022/03/31 00:08:15;;;;;;;3.47;1.30;;;6.40;99.90;;;;;;4969884;28;20101;-66
2022/03/31 00:10:44;;;;;;;3.30;1.48;;;6.30;99.90;;;;;;4953285;28;20043;-66
2022/03/31 00:13:30;;;;;;;3.97;1.20;;;6.40;99.90;;;;;;4971519;28;20042;-66
2022/03/31 00:15:58;;;;;;;2.33;0.80;;;6.30;99.90;;;;;;4969317;28;20067;-66
2022/03/31 00:18:25;;;;;;;2.03;0.88;;;6.30;99.90;;;;;;4968149;28;20050;-66
2022/03/31 00:24:12;;;;;;;8.02;1.50;;;6.40;99.90;;;;;;4956468;28;20494;-66
2022/03/31 00:26:38;;;;;;;4.55;0.88;;;6.30;99.90;;;;;;4953104;28;20051;-66
2022/03/31 00:29:05;;;;;;;11.85;1.48;;;6.50;99.90;;;;;;4949884;28;20050;-66
2022/03/31 00:31:30;;;;;;;2.70;0.93;;;6.40;99.90;;;;;;4957342;28;20042;-66
2022/03/31 00:33:56;;;;;;;3.40;0.95;;;6.40;99.90;;;;;;4962581;28;20067;-66
2022/03/31 00:36:21;;;;;;;5.15;1.13;;;6.30;99.90;;;;;;4949047;28;20066;-67
2022/03/31 00:41:39;;;;;;;5.28;1.40;;;6.20;99.90;;;;;;4981992;28;20101;-66
2022/03/31 00:44:05;;;;;;;6.68;1.10;;;6.30;99.90;;;;;;4969199;28;20047;-66
2022/03/31 00:46:31;;;;;;;3.40;0.77;;;6.30;99.90;;;;;;4978600;28;20043;-66
2022/03/31 00:48:57;;;;;;;2.53;0.77;;;6.20;99.90;;;;;;4951037;28;20054;-66
2022/03/31 00:51:23;;;;;;;3.08;0.80;;;6.20;99.90;;;;;;4960802;28;20066;-66
2022/03/31 00:53:48;;;;;;;2.45;1.35;;;6.10;99.90;;;;;;4967475;28;20122;-66
2022/03/31 00:56:18;;;;;;;3.65;1.90;;;6.10;99.90;;;;;;4975580;28;20517;-66
2022/03/31 00:58:44;;;;;;;7.28;1.30;;;6.10;99.90;;;;;;4962757;28;20118;-66
2022/03/31 01:01:13;;;;;;;4.85;1.02;;;6.10;99.90;;;;;;4972307;28;20045;-66
2022/03/31 01:03:39;;;;;;;7.13;1.20;;;6.10;99.90;;;;;;4979109;28;20487;-66
2022/03/31 01:06:05;;;;;;;3.42;0.80;;;6.00;99.90;;;;;;4949210;28;20051;-66
2022/03/31 01:08:31;;;;;;;2.22;0.88;;;6.00;99.90;;;;;;4966698;28;20054;-66
2022/03/31 01:10:57;;;;;;;5.15;1.08;;;6.00;99.90;;;;;;4987725;28;20051;-66
2022/03/31 01:13:23;;;;;;;5.60;1.27;;;6.00;99.90;;;;;;4982693;28;20104;-66
2022/03/31 01:15:49;;;;;;;6.63;1.23;;;6.00;99.90;;;;;;4954368;28;20583;-66
2022/03/31 01:18:14;;;;;;;3.97;1.10;;;5.90;99.90;;;;;;4970995;28;20097;-66
2022/03/31 01:20:40;;;;;;;5.25;1.30;;;5.90;99.90;;;;;;4971485;28;20054;-66
2022/03/31 01:23:16;;;;;;;2.83;0.60;;;5.90;99.90;;;;;;4954054;28;20374;-66
2022/03/31 01:25:42;;;;;;;3.40;0.93;;;5.90;99.90;;;;;;4960239;28;20050;-66
2022/03/31 01:28:09;;;;;;;2.80;0.65;;;5.90;99.90;;;;;;4988072;28;20031;-66
2022/03/31 01:30:34;;;;;;;3.38;0.73;;;5.90;99.90;;;;;;4961508;28;20058;-66
2022/03/31 01:33:00;;;;;;;1.75;0.63;;;5.90;99.90;;;;;;4987369;28;20378;-66
2022/03/31 01:35:26;;;;;;;8.68;1.98;;;5.90;99.90;;;;;;4976603;28;20094;-66
2022/03/31 01:37:52;;;;;;;9.90;1.27;;;5.90;99.90;;;;;;4970928;28;20051;-66
2022/03/31 01:40:18;;;;;;;5.13;1.60;;;5.90;99.90;;;;;;4954472;28;20043;-66
2022/03/31 01:42:45;;;;;;;3.78;1.10;;;6.00;99.90;;;;;;4963169;28;20061;-66
2022/03/31 01:45:14;;;;;;;6.35;1.55;;;5.90;99.90;;;;;;4988265;28;20443;-66
2022/03/31 01:47:41;;;;;;;2.78;1.38;;;5.90;99.90;;;;;;4991510;28;20048;-66
2022/03/31 01:50:09;;;;;;;6.15;1.73;;;5.90;99.90;;;;;;4952986;28;20415;-66
2022/03/31 01:52:35;;;;;;;8.50;1.67;;;5.90;99.90;;;;;;4952980;28;20926;-66
2022/03/31 01:55:01;;;;;;;6.20;1.63;;;5.80;99.90;;;;;;4952091;28;20054;-66
2022/03/31 01:57:27;;;;;;;4.45;1.25;;;5.80;99.90;;;;;;4952987;28;20043;-66
2022/03/31 01:59:52;;;;;;;8.32;1.20;;;5.80;99.90;;;;;;4962108;28;20058;-66
2022/03/31 02:02:18;;;;;;;7.72;1.30;;;5.80;99.90;;;;;;4967615;28;20050;-66
2022/03/31 02:04:44;;;;;;;5.07;1.33;;;5.80;99.90;;;;;;4961674;28;20043;-66
2022/03/31 02:07:10;;;;;;;5.80;1.20;;;5.70;99.90;;;;;;4955754;28;20058;-66
2022/03/31 02:09:36;;;;;;;5.13;1.33;;;5.70;99.90;;;;;;4952774;28;20039;-66
2022/03/31 02:12:02;;;;;;;4.97;1.20;;;5.70;99.90;;;;;;4972079;28;20394;-66
2022/03/31 02:14:28;;;;;;;7.18;1.75;;;5.70;99.90;;;;;;4958057;28;20039;-66
2022/03/31 02:16:55;;;;;;;11.85;2.58;;;5.70;99.90;;;;;;4952021;28;20078;-66
2022/03/31 02:19:21;;;;;;;3.45;1.35;;;5.70;99.90;;;;;;4956957;28;20043;-66
2022/03/31 02:21:47;;;;;;;4.15;1.50;;;5.70;99.90;;;;;;4951074;28;20093;-66
2022/03/31 02:24:14;;;;;;;5.57;1.20;;;5.70;99.90;;;;;;4952642;28;20074;-66
2022/03/31 02:26:41;;;;;;;5.45;1.15;;;5.80;99.90;;;;;;4977849;28;20121;-66
2022/03/31 02:29:07;;;;;;;9.43;1.90;;;5.80;99.90;;;;;;4960045;28;20134;-66
2022/03/31 02:31:32;;;;;;;7.15;1.80;;;5.80;99.90;;;;;;4969749;28;20121;-66
2022/03/31 02:33:58;;;;;;;9.05;2.28;;;5.70;99.90;;;;;;4970830;28;20101;-66
2022/03/31 02:36:26;;;;;;;9.55;1.48;;;5.60;99.90;;;;;;4957304;28;20087;-66
2022/03/31 02:38:52;;;;;;;8.82;1.73;;;5.60;99.90;;;;;;4952774;28;20047;-66
2022/03/31 02:41:17;;;;;;;5.53;1.30;;;5.50;99.90;;;;;;4985284;28;20042;-66
2022/03/31 02:43:43;;;;;;;12.25;2.38;;;5.50;99.90;;;;;;4989942;28;20110;-66
2022/03/31 02:46:08;;;;;;;7.22;2.42;;;5.60;99.90;;;;;;4956653;28;20509;-66
2022/03/31 02:48:34;;;;;;;6.45;2.42;;;5.60;99.90;;;;;;4952193;29;20054;-66
2022/03/31 02:50:59;;;;;;;7.47;3.53;;;5.60;99.90;;;;;;4967668;28;20046;-66
2022/03/31 02:56:09;;;;;;;11.82;4.20;;;5.60;99.90;;;;;;4960454;28;20404;-66
2022/03/31 02:58:35;;;;;;;5.30;4.07;;;5.70;99.90;;;;;;4953119;28;20051;-66
2022/03/31 03:01:02;;;;;;;7.18;3.58;;;5.80;99.90;;;;;;4952231;28;20508;-66
2022/03/31 03:03:29;;;;;;;6.15;3.97;;;5.80;99.90;;;;;;4990223;28;20149;-66
2022/03/31 03:05:55;;;;;;;6.97;3.67;;;5.80;99.90;;;;;;4979855;28;21162;-66
2022/03/31 03:08:20;;;;;;;8.82;3.63;;;5.80;99.90;;;;;;4969627;28;20130;-67
2022/03/31 03:10:46;;;;;;;6.10;3.15;;;5.80;99.90;;;;;;4971015;28;20057;-66
2022/03/31 03:13:13;;;;;;;6.38;3.50;;;5.90;99.90;;;;;;4959312;28;20050;-66
2022/03/31 03:15:38;;;;;;;6.57;3.30;;;5.80;99.90;;;;;;4969578;28;20046;-66
2022/03/31 03:18:04;;;;;;;6.43;3.17;;;5.80;99.90;;;;;;4990216;28;20064;-66
2022/03/31 03:20:30;;;;;;;6.88;3.28;;;5.80;99.90;;;;;;4970644;28;20039;-66
2022/03/31 03:22:56;;;;;;;4.93;3.05;;;5.80;99.90;;;;;;4954112;28;20054;-66
2022/03/31 03:25:22;;;;;;;7.25;3.42;;;5.80;99.90;;;;;;4965867;28;20125;-66
2022/03/31 03:27:49;;;;;;;5.72;3.35;;;5.80;99.90;;;;;;4980357;28;20047;-66
2022/03/31 03:30:18;;;;;;;6.75;3.10;;;5.70;99.90;;;;;;4951615;28;20054;-66
2022/03/31 03:32:45;;;;;;;4.93;3.22;;;5.60;99.90;;;;;;4977290;28;20039;-66
2022/03/31 03:35:11;;;;;;;6.30;3.42;;;5.70;99.90;;;;;;4977397;28;20058;-66
2022/03/31 03:37:39;;;;;;;5.75;3.03;;;5.60;99.90;;;;;;4962916;28;20059;-66
2022/03/31 03:40:06;;;;;;;6.82;2.95;;;5.60;99.90;;;;;;4963356;28;20482;-66
2022/03/31 03:42:32;;;;;;;6.28;3.00;;;5.60;99.90;;;;;;4969058;28;20057;-66
2022/03/31 03:44:59;;;;;;;5.50;2.38;;;5.70;99.90;;;;;;4972863;28;20134;-66
2022/03/31 03:47:25;;;;;;;4.93;3.17;;;5.60;99.90;;;;;;4960892;28;20402;-66
2022/03/31 03:49:50;;;;;;;5.38;4.00;;;5.60;99.90;;;;;;4951234;28;20095;-66
2022/03/31 03:52:17;;;;;;;7.43;3.47;;;5.60;99.90;;;;;;4950974;29;20043;-67
2022/03/31 03:54:42;;;;;;;4.00;2.95;;;5.60;99.90;;;;;;4955961;28;20476;-66
2022/03/31 03:57:08;;;;;;;5.20;2.97;;;5.60;99.90;;;;;;4953089;28;20051;-66
2022/03/31 03:59:34;;;;;;;5.50;3.25;;;5.70;99.90;;;;;;4950010;28;20058;-66
2022/03/31 04:02:00;;;;;;;3.85;2.50;;;5.60;99.90;;;;;;4977471;28;20081;-66
2022/03/31 04:04:27;;;;;;;3.97;2.83;;;5.60;99.90;;;;;;4974557;28;20058;-66
2022/03/31 04:06:53;;;;;;;2.08;1.63;;;5.60;99.90;;;;;;4950324;28;20039;-66
2022/03/31 04:09:18;;;;;;;2.92;1.38;;;5.50;99.90;;;;;;4950414;29;20515;-66
2022/03/31 04:11:44;;;;;;;1.45;1.33;;;5.60;99.90;;;;;;4950124;28;20043;-66
2022/03/31 04:14:09;;;;;;;1.90;1.60;;;5.50;99.90;;;;;;4967633;28;20545;-66
2022/03/31 04:16:35;;;;;;;2.38;1.60;;;5.50;99.90;;;;;;4961779;28;20502;-66
2022/03/31 04:19:00;;;;;;;2.75;2.50;;;5.60;99.90;;;;;;4953927;28;20055;-66
2022/03/31 04:21:26;;;;;;;4.75;2.17;;;5.50;99.90;;;;;;4948956;28;20043;-66
2022/03/31 04:23:51;;;;;;;2.47;2.05;;;5.40;99.90;;;;;;4956423;28;20047;-66
2022/03/31 04:26:17;;;;;;;4.18;2.40;;;5.40;99.90;;;;;;4986257;28;20388;-66
2022/03/31 04:28:42;;;;;;;2.08;1.60;;;5.10;99.90;;;;;;4949813;28;20070;-66
2022/03/31 04:31:08;;;;;;;3.17;2.20;;;5.10;99.90;;;;;;4973141;28;20100;-66
2022/03/31 04:33:34;;;;;;;1.83;1.20;;;5.00;99.90;;;;;;4966829;28;20208;-66
2022/03/31 04:35:59;;;;;;;7.03;1.70;;;4.80;99.90;;;;;;4965930;28;20730;-67
2022/03/31 04:38:25;;;;;;;2.17;1.45;;;4.80;99.90;;;;;;4964655;28;20083;-67
2022/03/31 04:40:50;;;;;;;5.38;2.47;;;4.70;99.90;;;;;;4967619;28;20074;-67
2022/03/31 04:43:16;;;;;;;2.20;1.50;;;4.60;99.90;;;;;;4969131;28;20097;-67
2022/03/31 04:45:41;;;;;;;2.35;2.05;;;4.70;99.90;;;;;;4957551;28;20047;-67
2022/03/31 04:48:07;;;;;;;3.92;1.58;;;4.50;99.90;;;;;;4950628;28;20069;-67
2022/03/31 04:50:33;;;;;;;6.18;2.60;;;4.60;99.90;;;;;;4948250;28;20170;-67
2022/03/31 04:52:59;;;;;;;6.20;2.00;;;4.50;99.90;;;;;;4968825;28;20046;-67
2022/03/31 04:55:25;;;;;;;4.10;2.22;;;4.50;99.90;;;;;;4969441;28;20050;-66
2022/03/31 04:57:51;;;;;;;4.18;2.92;;;4.40;99.90;;;;;;4949411;28;20054;-67
2022/03/31 05:00:17;;;;;;;3.75;2.40;;;4.40;99.90;;;;;;4950159;29;20051;-67
2022/03/31 05:02:43;;;;;;;4.10;2.00;;;4.50;99.90;;;;;;4962049;28;20055;-67
2022/03/31 05:05:09;;;;;;;2.55;2.03;;;4.50;99.90;;;;;;4963652;28;20039;-67
2022/03/31 05:07:34;;;;;;;3.45;1.95;;;4.60;99.90;;;;;;4969031;28;20121;-67
2022/03/31 05:10:00;;;;;;;4.03;2.85;;;4.60;99.90;;;;;;4961305;28;20139;-67
2022/03/31 05:12:26;;;;;;;3.83;2.00;;;4.60;99.90;;;;;;4957071;28;20069;-67
2022/03/31 05:14:51;;;;;;;3.55;2.13;;;4.80;99.90;;;;;;4970101;28;20112;-67
2022/03/31 05:17:17;;;;;;;1.63;1.52;;;4.70;99.90;;;;;;4959127;28;20507;-67
2022/03/31 05:19:42;;;;;;;3.63;2.08;;;4.80;99.90;;;;;;4950232;28;20123;-67
2022/03/31 05:22:08;;;;;;;4.63;1.90;;;4.80;99.90;;;;;;4953609;28;20362;-67
2022/03/31 05:24:33;;;;;;;2.40;1.80;;;4.80;99.90;;;;;;4966852;28;20750;-66
2022/03/31 05:26:59;;;;;;;5.15;3.35;;;4.80;99.90;;;;;;4961920;28;20047;-67
2022/03/31 05:29:24;;;;;;;4.38;2.25;;;4.80;99.90;;;;;;4949851;29;20035;-67
2022/03/31 05:31:50;;;;;;;2.70;2.03;;;4.80;99.90;;;;;;4965204;28;20047;-67
2022/03/31 05:34:16;;;;;;;4.05;2.65;;;4.80;99.90;;;;;;4958297;28;20088;-67
2022/03/31 05:36:42;;;;;;;4.22;2.05;;;4.80;99.90;;;;;;4964127;28;20055;-67
2022/03/31 05:39:07;;;;;;;3.17;1.95;;;4.90;99.90;;;;;;4949314;28;20471;-67
2022/03/31 05:41:34;;;;;;;3.53;2.10;;;4.90;99.90;;;;;;4985900;28;20034;-67
2022/03/31 05:44:00;;;;;;;4.03;2.42;;;4.90;99.90;;;;;;4960442;28;20058;-67
2022/03/31 05:46:26;;;;;;;3.58;2.13;;;4.90;99.90;;;;;;4951414;28;20051;-67
2022/03/31 05:48:52;;;;;;;3.67;1.90;;;4.90;99.90;;;;;;4957409;28;20419;-67
2022/03/31 05:51:17;;;;;;;2.83;2.15;;;4.90;99.90;;;;;;4960211;28;20051;-67
2022/03/31 05:53:43;;;;;;;3.85;2.10;;;4.90;99.90;;;;;;4980482;28;20047;-67
2022/03/31 05:56:09;;;;;;;2.80;1.88;;;4.90;99.90;;;;;;4953297;28;20703;-67
2022/03/31 05:58:35;;;;;;;8.90;1.90;;;5.00;99.90;;;;;;4948738;28;20047;-67
2022/03/31 06:01:01;;;;;;;2.45;2.08;;;5.00;99.90;;;;;;4957049;28;20063;-67
2022/03/31 06:03:27;;;;;;;3.15;2.50;;;5.00;99.90;;;;;;4979865;28;20057;-66
2022/03/31 06:05:52;;;;;;;4.15;2.80;;;4.90;99.90;;;;;;4973417;28;20114;-67
2022/03/31 06:08:18;;;;;;;5.47;2.30;;;4.90;99.90;;;;;;4968410;28;20090;-66
2022/03/31 06:10:45;;;;;;;2.47;1.90;;;5.00;99.90;;;;;;4952666;28;20073;-66
2022/03/31 06:13:11;;;;;;;4.38;2.85;;;5.00;99.90;;;;;;4974481;28;20050;-66
2022/03/31 06:15:37;;;;;;;4.78;2.20;;;5.00;99.90;;;;;;4972129;28;20046;-67
2022/03/31 06:18:04;;;;;;;8.27;2.95;;;5.10;99.90;;;;;;4961394;28;20102;-66
2022/03/31 06:20:31;;;;;;;3.65;2.97;;;5.10;99.90;;;;;;4956886;28;20805;-66
2022/03/31 06:22:57;;;;;;;9.57;3.25;;;5.20;99.90;;;;;;4957026;28;20035;-66
2022/03/31 06:25:23;;;;;;;4.88;3.25;;;5.20;99.90;;;;;;4982203;28;20043;-66
2022/03/31 06:27:49;;;;;;;8.13;3.45;;;5.20;99.90;;;;;;4990812;28;20048;-66
2022/03/31 06:30:15;;;;;;;4.57;3.78;;;5.30;99.90;;;;;;4969222;28;20147;-67
2022/03/31 06:32:41;;;;;;;5.82;4.20;;;5.20;99.90;;;;;;4974782;28;20424;-66
2022/03/31 06:35:11;;;;;;;6.53;3.80;;;5.20;99.90;;;;;;4969106;28;20050;-67
2022/03/31 06:37:38;;;;;;;6.90;3.15;;;5.20;99.90;;;;;;4951641;28;20055;-67
2022/03/31 06:40:04;;;;;;;4.75;3.75;;;5.20;99.90;;;;;;4965669;28;20054;-67
2022/03/31 06:42:30;;;;;;;4.80;2.92;;;5.20;99.90;;;;;;4970422;28;20090;-67
2022/03/31 06:44:57;;;;;;;7.10;2.53;;;5.30;99.90;;;;;;4951962;28;20082;-67
2022/03/31 06:47:22;;;;;;;3.92;2.75;;;5.30;99.90;;;;;;4951877;28;20047;-67
2022/03/31 06:49:48;;;;;;;5.22;2.33;;;5.30;99.90;;;;;;4967871;28;20045;-67
2022/03/31 06:52:14;;;;;;;2.60;1.90;;;5.30;99.90;;;;;;4979838;28;20486;-67
2022/03/31 06:54:39;;;;;;;3.08;2.35;;;5.40;99.90;;;;;;4963109;28;20051;-67
2022/03/31 06:57:05;;;;;;;3.13;2.35;;;5.40;99.90;;;;;;4959972;28;20047;-67
2022/03/31 06:59:31;;;;;;;3.80;2.20;;;5.40;99.90;;;;;;4969488;28;20114;-67
2022/03/31 07:01:57;;;;;;;2.10;1.85;;;5.50;99.90;;;;;;4969648;28;20036;-67
2022/03/31 07:04:23;;;;;;;4.20;3.60;;;5.50;99.90;;;;;;4953236;28;20097;-67
2022/03/31 07:06:49;;;;;;;5.60;2.75;;;5.70;99.90;;;;;;4958903;28;20482;-67
2022/03/31 07:09:15;;;;;;;3.42;2.28;;;5.60;99.90;;;;;;4966821;28;20035;-67
2022/03/31 07:11:41;;;;;;;2.95;2.13;;;5.80;99.90;;;;;;4958044;28;20557;-67
2022/03/31 07:14:06;;;;;;;1.60;1.50;;;5.80;99.90;;;;;;4968487;28;20043;-67
2022/03/31 07:16:32;;;;;;;2.80;2.20;;;5.80;99.90;;;;;;4965269;28;20434;-67
2022/03/31 07:18:59;;;;;;;3.00;2.30;;;5.80;99.90;;;;;;4971508;28;20125;-67
2022/03/31 07:21:25;;;;;;;2.13;1.90;;;5.70;99.90;;;;;;4961749;28;20047;-67
2022/03/31 07:23:51;;;;;;;2.47;2.28;;;5.70;99.90;;;;;;4956329;28;20055;-67
2022/03/31 07:26:18;;;;;;;3.75;2.72;;;5.70;99.90;;;;;;4963636;28;20541;-67
2022/03/31 07:28:43;;;;;;;5.25;2.58;;;5.70;99.90;;;;;;4970797;28;20395;-67
2022/03/31 07:31:09;;;;;;;3.50;2.47;;;5.80;99.90;;;;;;4993157;28;20061;-67
2022/03/31 07:33:35;;;;;;;3.45;2.75;;;5.80;99.90;;;;;;4950939;28;20126;-67
2022/03/31 07:36:00;;;;;;;3.20;2.90;;;5.80;99.90;;;;;;4951169;28;20138;-67
2022/03/31 07:38:26;;;;;;;4.63;3.42;;;5.80;99.90;;;;;;4954891;28;20043;-67
2022/03/31 07:40:51;;;;;;;3.75;3.15;;;5.90;99.90;;;;;;4973107;28;20054;-67
2022/03/31 07:43:17;;;;;;;3.28;2.83;;;5.90;99.90;;;;;;4970480;28;20043;-67
2022/03/31 07:45:42;;;;;;;3.40;3.10;;;5.90;99.90;;;;;;4962299;28;20035;-67
2022/03/31 07:48:09;;;;;;;3.58;3.15;;;5.80;99.90;;;;;;4951288;28;20047;-66
2022/03/31 07:50:37;;;;;;;3.40;3.10;;;5.80;99.90;;;;;;4950986;29;20063;-67
2022/03/31 07:53:02;;;;;;;3.75;2.95;;;5.80;99.90;;;;;;4949179;28;20481;-66
2022/03/31 07:55:28;;;;;;;3.67;3.38;;;6.10;99.90;;;;;;4950314;28;20130;-67
2022/03/31 07:57:54;;;;;;;3.28;2.97;;;6.10;99.90;;;;;;4949386;28;20142;-66
2022/03/31 08:00:20;;;;;;;3.53;3.22;;;6.30;99.90;;;;;;4963263;28;20070;-67
2022/03/31 08:02:51;;;;;;;3.22;2.40;;;6.10;99.90;;;;;;4970147;28;20117;-66
2022/03/31 08:05:27;;;;;;;3.88;3.03;;;6.10;99.90;;;;;;4950893;28;20047;-67
2022/03/31 08:07:52;;;;;;;3.20;2.90;;;6.00;99.90;;;;;;4950035;28;20051;-67
2022/03/31 08:10:20;;;;;;;3.83;3.42;;;5.80;99.90;;;;;;4951770;28;20800;-66
2022/03/31 08:12:46;;;;;;;3.58;3.28;;;5.90;99.90;;;;;;4960306;28;20128;-67
2022/03/31 08:15:15;;;;;;;4.57;3.67;;;6.00;99.90;;;;;;4951105;28;20047;-67
2022/03/31 08:17:41;;;;;;;5.53;4.80;;;5.90;99.90;;;;;;4969874;28;20042;-67
2022/03/31 08:20:08;;;;;;;4.90;4.40;;;5.90;99.90;;;;;;4969719;28;20045;-67
2022/03/31 08:22:35;;;;;;;4.90;4.20;;;5.80;99.90;;;;;;4959970;28;20047;-67
2022/03/31 08:25:02;;;;;;;6.05;5.05;;;5.80;99.90;;;;;;4951308;28;20106;-67
2022/03/31 08:27:28;;;;;;;5.18;4.68;;;5.80;99.90;;;;;;4950032;29;20051;-67
2022/03/31 08:29:54;;;;;;;6.13;5.50;;;5.70;99.90;;;;;;4950515;28;20047;-67
2022/03/31 08:32:19;;;;;;;6.15;5.53;;;5.80;99.90;;;;;;4953347;28;20050;-67
2022/03/31 08:34:45;;;;;;;4.95;4.45;;;5.80;99.90;;;;;;4950441;28;20090;-67
2022/03/31 08:37:10;;;;;;;4.63;4.22;;;5.90;99.90;;;;;;4950847;28;20051;-67
2022/03/31 08:39:36;;;;;;;4.72;4.22;;;5.80;99.90;;;;;;4953220;28;20042;-67
2022/03/31 08:42:04;;;;;;;3.58;3.20;;;5.80;99.90;;;;;;4975295;28;20050;-66
2022/03/31 08:44:30;;;;;;;4.95;3.72;;;6.00;99.90;;;;;;4956398;28;20109;-65
2022/03/31 08:46:55;;;;;;;4.90;4.45;;;6.00;99.90;;;;;;4961123;28;20042;-64
2022/03/31 08:49:22;;;;;;;4.70;4.25;;;5.90;99.90;;;;;;4958056;28;20563;-66
2022/03/31 08:51:47;;;;;;;6.03;4.70;;;6.00;99.90;;;;;;4987808;28;20439;-66
2022/03/31 08:54:13;;;;;;;5.28;4.78;;;5.80;99.90;;;;;;4960094;28;20042;-67
2022/03/31 08:56:39;;;;;;;5.82;5.22;;;5.90;99.90;;;;;;4965361;28;20046;-66
2022/03/31 08:59:06;;;;;;;7.68;5.38;;;5.90;99.90;;;;;;4967682;28;20057;-66
2022/03/31 09:01:32;;;;;;;6.13;5.53;;;5.90;99.90;;;;;;4951898;28;20525;-66
2022/03/31 09:03:58;;;;;;;6.18;5.13;;;5.70;99.90;;;;;;4954048;28;20070;-66
2022/03/31 09:06:28;;;;;;;6.65;6.05;;;5.70;99.90;;;;;;4951837;28;20166;-66
2022/03/31 09:08:59;;;;;;;7.00;5.88;;;5.70;99.90;;;;;;4950479;28;20376;-66
2022/03/31 09:11:32;;;;;;;5.60;4.55;;;5.70;99.90;;;;;;4955741;28;20051;-66
2022/03/31 09:14:00;;;;;;;4.47;4.07;;;5.70;99.90;;;;;;4967357;28;20047;-66
2022/03/31 09:16:38;;;;;;;5.03;4.53;;;5.70;99.90;;;;;;4953769;28;20048;-66
2022/03/31 09:19:15;;;;;;;3.85;3.45;;;5.70;99.90;;;;;;4951489;28;20368;-66
2022/03/31 09:21:54;;;;;;;3.85;3.45;;;5.80;99.90;;;;;;4960721;28;20051;-67
2022/03/31 09:24:21;;;;;;;4.55;3.97;;;5.90;99.90;;;;;;4970300;28;20118;-66
2022/03/31 09:26:48;;;;;;;5.30;4.80;;;5.80;99.90;;;;;;4991247;28;20051;-66
2022/03/31 09:29:15;;;;;;;7.20;6.07;;;5.90;99.90;;;;;;4955092;28;20043;-67
2022/03/31 09:31:41;;;;;;;5.82;5.22;;;5.80;99.90;;;;;;4961182;28;20069;-67
2022/03/31 09:34:08;;;;;;;6.45;5.85;;;5.70;99.90;;;;;;4973220;28;20537;-67
2022/03/31 09:36:34;;;;;;;5.65;5.15;;;5.60;99.90;;;;;;4975173;28;20062;-67
2022/03/31 09:39:08;;;;;;;5.80;5.20;;;5.70;99.90;;;;;;4967342;28;20081;-66
2022/03/31 09:41:39;;;;;;;4.85;4.20;;;5.80;99.90;;;;;;4962246;28;20142;-66
2022/03/31 09:44:14;;;;;;;5.05;4.65;;;5.70;99.90;;;;;;4963665;28;20043;-66
2022/03/31 09:46:40;;;;;;;6.45;5.25;;;5.70;99.90;;;;;;4962019;28;20046;-66
2022/03/31 09:49:18;;;;;;;5.30;4.80;;;5.60;99.90;;;;;;4971822;28;20106;-66
2022/03/31 09:51:45;;;;;;;4.90;4.40;;;5.50;99.90;;;;;;4968100;28;20057;-66
2022/03/31 09:54:11;;;;;;;6.63;4.30;;;5.50;99.90;;;;;;4967641;28;20114;-66
2022/03/31 09:56:40;;;;;;;9.03;5.40;;;5.40;99.90;;;;;;4965484;28;20051;-66
2022/03/31 09:59:13;;;;;;;9.05;6.35;;;5.40;99.90;;;;;;4968835;28;20051;-66
2022/03/31 10:01:39;;;;;;;;;;;5.30;99.90;;;;;;4970761;28;20427;-66
2022/03/31 10:04:11;;;;;;;5.93;4.90;;;5.30;99.90;;;;;;4970770;28;19975;-66
2022/03/31 10:06:39;;;;;;;9.38;5.93;;;5.50;99.90;;;;;;4971894;28;20042;-66
2022/03/31 10:09:06;;;;;;;5.13;4.63;;;5.50;99.90;;;;;;4974185;28;20093;-66
2022/03/31 10:11:36;;;;;;;6.38;4.22;;;5.50;99.90;;;;;;4957681;28;20059;-67
2022/03/31 10:14:08;;;;;;;7.97;4.53;;;5.50;99.90;;;;;;4975075;28;20061;-67
2022/03/31 10:17:01;;;;;;;4.82;3.83;;;5.60;99.90;;;;;;4973842;28;20182;-66
2022/03/31 10:19:31;;;;;;;6.50;4.73;;;5.50;99.90;;;;;;4981486;28;20105;-66
2022/03/31 10:21:58;;;;;;;12.88;6.32;;;5.60;99.90;;;;;;4960371;28;20094;-67
2022/03/31 10:24:46;;;;;;;12.65;6.35;;;5.60;99.90;;;;;;4964142;28;20035;-67
2022/03/31 10:27:26;;;;;;;9.07;5.80;;;5.60;99.90;;;;;;4963882;28;20074;-67
2022/03/31 10:29:52;;;;;;;5.75;4.57;;;5.60;99.90;;;;;;4955058;28;20161;-66
2022/03/31 10:32:26;;;;;;;8.27;4.63;;;5.60;99.90;;;;;;4960678;28;20191;-67
2022/03/31 10:34:54;;;;;;;7.45;4.95;;;5.70;99.90;;;;;;4952642;28;20059;-67
2022/03/31 10:37:31;;;;;;;5.55;4.57;;;5.80;99.90;;;;;;4953603;29;20071;-67
2022/03/31 10:39:57;;;;;;;6.78;5.47;;;5.80;99.90;;;;;;4960757;28;20061;-66
2022/03/31 10:42:24;;;;;;;6.43;4.65;;;5.70;99.90;;;;;;4958697;28;20134;-66
2022/03/31 10:45:01;;;;;;;6.43;5.38;;;5.70;99.90;;;;;;4954099;28;20044;-66
2022/03/31 10:47:32;;;;;;;4.95;4.10;;;5.70;99.90;;;;;;4963912;28;20039;-66
2022/03/31 10:49:57;;;;;;;5.55;4.47;;;5.90;99.90;;;;;;4968346;28;20562;-66
2022/03/31 10:52:23;;;;;;;7.82;4.63;;;6.00;99.90;;;;;;4959719;28;20126;-67
2022/03/31 10:54:51;;;;;;;5.43;3.70;;;5.80;99.90;;;;;;4955152;28;20079;-67
2022/03/31 10:57:17;;;;;;;4.85;3.60;;;5.90;99.90;;;;;;4964106;28;20070;-66
2022/03/31 10:59:46;;;;;;;3.58;3.13;;;5.90;99.90;;;;;;4962102;28;20058;-67
2022/03/31 11:02:14;;;;;;;4.30;3.33;;;5.70;99.90;;;;;;4964543;28;20138;-67
2022/03/31 11:04:50;;;;;;;5.03;4.47;;;5.80;99.90;;;;;;4962726;28;20177;-67
2022/03/31 11:07:24;;;;;;;7.60;5.25;;;5.80;99.90;;;;;;4968253;28;20047;-67
2022/03/31 11:10:15;;;;;;;5.80;3.83;;;5.90;99.90;;;;;;4962671;28;20050;-67
2022/03/31 11:12:41;;;;;;;5.78;3.80;;;5.70;99.90;;;;;;4971350;28;20046;-67
2022/03/31 11:15:10;;;;;;;5.20;4.00;;;6.00;99.90;;;;;;4965339;28;20053;-67
2022/03/31 11:17:37;;;;;;;5.07;3.72;;;5.90;99.90;;;;;;4965135;28;20078;-65
2022/03/31 11:20:14;;;;;;;5.45;3.80;;;5.80;99.90;;;;;;4965595;28;20102;-66
2022/03/31 11:22:49;;;;;;;8.35;4.63;;;5.80;99.90;;;;;;4968776;28;20483;-66
2022/03/31 11:25:15;;;;;;;5.05;3.20;;;5.80;99.90;;;;;;4960118;28;20492;-66
2022/03/31 11:27:42;;;;;;;3.85;2.70;;;5.90;99.90;;;;;;4972179;28;20042;-66
2022/03/31 11:30:11;;;;;;;6.18;3.55;;;6.00;99.90;;;;;;4970548;28;20047;-67
2022/03/31 11:32:38;;;;;;;5.63;3.63;;;5.80;99.90;;;;;;4961552;28;20450;-65
2022/03/31 11:35:13;;;;;;;2.88;2.60;;;6.00;99.90;;;;;;4954098;28;20443;-66
2022/03/31 11:37:46;;;;;;;6.35;4.55;;;5.80;99.90;;;;;;4962870;28;20063;-66
2022/03/31 11:40:18;;;;;;;7.72;3.78;;;5.60;99.90;;;;;;4961406;28;20471;-67
2022/03/31 11:42:45;;;;;;;3.67;3.00;;;5.70;99.90;;;;;;4963849;28;20057;-67
2022/03/31 11:45:22;;;;;;;5.20;3.88;;;5.60;99.90;;;;;;4960405;28;20094;-67
2022/03/31 11:48:04;;;;;;;7.38;4.40;;;5.50;99.90;;;;;;4956967;28;20093;-67
2022/03/31 11:50:31;;;;;;;6.05;3.42;;;5.50;99.90;;;;;;4971183;28;20057;-67
2022/03/31 11:52:57;;;;;;;8.02;4.38;;;5.40;99.90;;;;;;4971113;28;20092;-67
2022/03/31 11:55:23;;;;;;;6.80;4.53;;;5.50;99.90;;;;;;4962019;28;20483;-67
2022/03/31 11:57:56;;;;;;;8.63;4.95;;;5.50;99.90;;;;;;4960389;28;20134;-67
2022/03/31 12:00:24;;;;;;;8.02;4.85;;;5.40;99.90;;;;;;4961672;28;20562;-67
2022/03/31 12:02:59;;;;;;;6.28;4.63;;;5.50;99.90;;;;;;4965686;28;20118;-66
2022/03/31 12:05:25;;;;;;;7.30;4.32;;;5.40;99.90;;;;;;4958828;28;20039;-65
2022/03/31 12:07:51;;;;;;;8.13;5.22;;;5.40;99.90;;;;;;4958197;28;20062;-66
2022/03/31 12:10:18;;;;;;;7.00;4.75;;;5.30;99.90;;;;;;4970689;28;20031;-66
2022/03/31 12:12:52;;;;;;;6.13;5.13;;;5.40;99.90;;;;;;4966979;28;20049;-66
2022/03/31 12:15:27;;;;;;;9.30;4.72;;;5.30;99.90;;;;;;4958730;28;20568;-66
2022/03/31 12:18:07;;;;;;;5.43;4.10;;;5.30;99.90;;;;;;4999778;28;20097;-66
2022/03/31 12:20:35;;;;;;;5.32;4.18;;;5.40;99.90;;;;;;4972254;28;20471;-66
2022/03/31 12:23:02;;;;;;;5.32;4.47;;;5.20;99.90;;;;;;4957010;28;20047;-66
2022/03/31 12:25:30;;;;;;;4.75;3.58;;;5.20;99.90;;;;;;4967867;28;20121;-67
2022/03/31 12:27:58;;;;;;;5.97;4.57;;;5.20;99.90;;;;;;4966427;28;20108;-66
2022/03/31 12:30:26;;;;;;;4.05;3.22;;;5.20;99.90;;;;;;4957926;28;20039;-66
2022/03/31 12:32:51;;;;;;;3.92;3.53;;;5.10;99.90;;;;;;4961365;28;20096;-66
2022/03/31 12:35:18;;;;;;;5.05;4.45;;;5.00;99.90;;;;;;4992080;28;20442;-66
2022/03/31 12:37:48;;;;;;;6.15;4.68;;;4.90;99.90;;;;;;4960737;28;20514;-66
2022/03/31 12:40:16;;;;;;;6.22;4.68;;;4.90;99.90;;;;;;4966110;28;20108;-67
2022/03/31 12:42:52;;;;;;;5.13;4.07;;;5.00;99.90;;;;;;4962418;28;20101;-66
2022/03/31 12:45:18;;;;;;;4.38;3.83;;;4.90;99.90;;;;;;4965286;28;20050;-67
2022/03/31 12:47:48;;;;;;;7.90;3.63;;;4.90;99.90;;;;;;4959596;28;20055;-67
2022/03/31 12:50:16;;;;;;;4.68;4.18;;;4.70;99.90;;;;;;4960285;28;20061;-67
2022/03/31 12:52:52;;;;;;;5.65;4.55;;;4.50;99.90;;;;;;4960981;28;20051;-67
2022/03/31 12:55:18;;;;;;;5.03;3.75;;;4.60;99.90;;;;;;4962764;28;20043;-67
2022/03/31 12:57:55;;;;;;;5.10;4.15;;;4.60;99.90;;;;;;4963545;28;20504;-67
2022/03/31 13:00:22;;;;;;;3.88;3.40;;;4.40;99.90;;;;;;4958866;28;20042;-67
2022/03/31 13:02:48;;;;;;;4.60;4.07;;;4.30;99.90;;;;;;4964560;28;20042;-66
2022/03/31 13:05:21;;;;;;;4.63;3.47;;;4.20;99.90;;;;;;4962457;28;20051;-67
2022/03/31 13:07:48;;;;;;;5.32;4.10;;;4.30;99.90;;;;;;4963976;28;20078;-67